sensor_id;sensor_type;location;lat;lon;timestamp;P1;durP1;ratioP1;P2;durP2;ratioP2
17812;SDS011;9030;50.792;8.320;2023-10-08T00:01:36;14.70;;;5.72;;
17812;SDS011;9030;50.792;8.320;2023-10-08T00:04:08;11.38;;;5.88;;
17812;SDS011;9030;50.792;8.320;2023-10-08T00:06:36;14.05;;;6.30;;
17812;SDS011;9030;50.792;8.320;2023-10-08T00:09:03;12.27;;;6.28;;
17812;SDS011;9030;50.792;8.320;2023-10-08T00:11:34;11.57;;;5.85;;
17812;SDS011;9030;50.792;8.320;2023-10-08T00:14:02;13.77;;;6.15;;
17812;SDS011;9030;50.792;8.320;2023-10-08T00:16:30;14.80;;;5.57;;
17812;SDS011;9030;50.792;8.320;2023-10-08T00:18:58;13.43;;;6.30;;
17812;SDS011;9030;50.792;8.320;2023-10-08T00:21:34;10.32;;;5.28;;
17812;SDS011;9030;50.792;8.320;2023-10-08T00:24:02;13.20;;;5.03;;
17812;SDS011;9030;50.792;8.320;2023-10-08T00:26:32;13.50;;;6.03;;
17812;SDS011;9030;50.792;8.320;2023-10-08T00:29:00;13.82;;;6.18;;
17812;SDS011;9030;50.792;8.320;2023-10-08T00:31:32;14.27;;;6.05;;
17812;SDS011;9030;50.792;8.320;2023-10-08T00:34:03;15.07;;;6.07;;
17812;SDS011;9030;50.792;8.320;2023-10-08T00:36:31;13.85;;;5.45;;
17812;SDS011;9030;50.792;8.320;2023-10-08T00:39:00;15.73;;;6.63;;
17812;SDS011;9030;50.792;8.320;2023-10-08T00:41:33;13.82;;;6.10;;
17812;SDS011;9030;50.792;8.320;2023-10-08T00:44:00;14.32;;;7.05;;
17812;SDS011;9030;50.792;8.320;2023-10-08T00:46:30;12.80;;;5.72;;
17812;SDS011;9030;50.792;8.320;2023-10-08T00:49:01;12.68;;;5.10;;
17812;SDS011;9030;50.792;8.320;2023-10-08T00:51:45;14.30;;;6.78;;
17812;SDS011;9030;50.792;8.320;2023-10-08T00:54:25;12.77;;;7.13;;
17812;SDS011;9030;50.792;8.320;2023-10-08T00:56:56;10.52;;;5.40;;
17812;SDS011;9030;50.792;8.320;2023-10-08T00:59:23;13.88;;;6.13;;
17812;SDS011;9030;50.792;8.320;2023-10-08T01:01:51;16.02;;;6.97;;
17812;SDS011;9030;50.792;8.320;2023-10-08T01:04:24;14.65;;;6.53;;
17812;SDS011;9030;50.792;8.320;2023-10-08T01:06:52;12.38;;;6.28;;
17812;SDS011;9030;50.792;8.320;2023-10-08T01:09:24;11.20;;;5.72;;
17812;SDS011;9030;50.792;8.320;2023-10-08T01:12:09;16.02;;;6.20;;
17812;SDS011;9030;50.792;8.320;2023-10-08T01:14:41;12.48;;;5.50;;
17812;SDS011;9030;50.792;8.320;2023-10-08T01:17:08;12.82;;;6.45;;
17812;SDS011;9030;50.792;8.320;2023-10-08T01:19:37;11.18;;;5.75;;
17812;SDS011;9030;50.792;8.320;2023-10-08T01:22:08;13.75;;;6.97;;
17812;SDS011;9030;50.792;8.320;2023-10-08T01:24:41;12.85;;;5.68;;
17812;SDS011;9030;50.792;8.320;2023-10-08T01:27:09;10.77;;;5.57;;
17812;SDS011;9030;50.792;8.320;2023-10-08T01:29:37;15.23;;;6.60;;
17812;SDS011;9030;50.792;8.320;2023-10-08T01:32:04;12.65;;;6.22;;
17812;SDS011;9030;50.792;8.320;2023-10-08T01:34:35;12.50;;;6.00;;
17812;SDS011;9030;50.792;8.320;2023-10-08T01:37:02;13.55;;;6.63;;
17812;SDS011;9030;50.792;8.320;2023-10-08T01:39:35;13.98;;;6.88;;
17812;SDS011;9030;50.792;8.320;2023-10-08T01:42:02;13.00;;;5.82;;
17812;SDS011;9030;50.792;8.320;2023-10-08T01:44:30;11.57;;;5.60;;
17812;SDS011;9030;50.792;8.320;2023-10-08T01:46:58;13.00;;;5.82;;
17812;SDS011;9030;50.792;8.320;2023-10-08T01:49:25;15.45;;;6.90;;
17812;SDS011;9030;50.792;8.320;2023-10-08T01:51:57;15.45;;;5.57;;
17812;SDS011;9030;50.792;8.320;2023-10-08T01:54:24;15.82;;;6.07;;
17812;SDS011;9030;50.792;8.320;2023-10-08T01:56:52;10.95;;;5.90;;
17812;SDS011;9030;50.792;8.320;2023-10-08T01:59:19;12.35;;;6.95;;
17812;SDS011;9030;50.792;8.320;2023-10-08T02:01:45;13.20;;;6.15;;
17812;SDS011;9030;50.792;8.320;2023-10-08T02:04:13;16.30;;;6.78;;
17812;SDS011;9030;50.792;8.320;2023-10-08T02:06:41;11.70;;;5.70;;
17812;SDS011;9030;50.792;8.320;2023-10-08T02:09:08;14.65;;;6.40;;
17812;SDS011;9030;50.792;8.320;2023-10-08T02:11:41;12.45;;;5.82;;
17812;SDS011;9030;50.792;8.320;2023-10-08T02:14:16;15.15;;;7.25;;
17812;SDS011;9030;50.792;8.320;2023-10-08T02:16:43;15.38;;;6.57;;
17812;SDS011;9030;50.792;8.320;2023-10-08T02:19:10;12.32;;;5.32;;
17812;SDS011;9030;50.792;8.320;2023-10-08T02:21:36;13.63;;;6.65;;
17812;SDS011;9030;50.792;8.320;2023-10-08T02:24:05;16.27;;;6.18;;
17812;SDS011;9030;50.792;8.320;2023-10-08T02:26:32;13.02;;;5.68;;
17812;SDS011;9030;50.792;8.320;2023-10-08T02:28:59;11.88;;;5.72;;
17812;SDS011;9030;50.792;8.320;2023-10-08T02:31:27;14.98;;;7.10;;
17812;SDS011;9030;50.792;8.320;2023-10-08T02:33:54;13.23;;;6.70;;
17812;SDS011;9030;50.792;8.320;2023-10-08T02:36:24;12.63;;;6.40;;
17812;SDS011;9030;50.792;8.320;2023-10-08T02:38:50;14.80;;;6.78;;
17812;SDS011;9030;50.792;8.320;2023-10-08T02:41:17;15.85;;;6.88;;
17812;SDS011;9030;50.792;8.320;2023-10-08T02:43:43;11.70;;;6.05;;
17812;SDS011;9030;50.792;8.320;2023-10-08T02:46:10;14.93;;;6.47;;
17812;SDS011;9030;50.792;8.320;2023-10-08T02:48:41;13.88;;;6.47;;
17812;SDS011;9030;50.792;8.320;2023-10-08T02:51:08;12.27;;;6.28;;
17812;SDS011;9030;50.792;8.320;2023-10-08T02:53:39;14.18;;;6.28;;
17812;SDS011;9030;50.792;8.320;2023-10-08T02:56:07;16.38;;;7.32;;
17812;SDS011;9030;50.792;8.320;2023-10-08T02:58:38;14.20;;;7.15;;
17812;SDS011;9030;50.792;8.320;2023-10-08T03:01:05;13.02;;;7.57;;
17812;SDS011;9030;50.792;8.320;2023-10-08T03:03:37;14.77;;;6.47;;
17812;SDS011;9030;50.792;8.320;2023-10-08T03:06:06;19.80;;;7.03;;
17812;SDS011;9030;50.792;8.320;2023-10-08T03:08:36;12.70;;;6.38;;
17812;SDS011;9030;50.792;8.320;2023-10-08T03:11:05;12.93;;;5.75;;
17812;SDS011;9030;50.792;8.320;2023-10-08T03:13:41;15.48;;;7.10;;
17812;SDS011;9030;50.792;8.320;2023-10-08T03:16:11;15.38;;;6.18;;
17812;SDS011;9030;50.792;8.320;2023-10-08T03:18:39;12.80;;;5.95;;
17812;SDS011;9030;50.792;8.320;2023-10-08T03:21:09;13.20;;;7.70;;
17812;SDS011;9030;50.792;8.320;2023-10-08T03:23:45;14.02;;;6.28;;
17812;SDS011;9030;50.792;8.320;2023-10-08T03:26:12;13.98;;;6.70;;
17812;SDS011;9030;50.792;8.320;2023-10-08T03:28:57;13.38;;;7.10;;
17812;SDS011;9030;50.792;8.320;2023-10-08T03:31:25;15.90;;;7.43;;
17812;SDS011;9030;50.792;8.320;2023-10-08T03:34:09;14.00;;;5.85;;
17812;SDS011;9030;50.792;8.320;2023-10-08T03:36:39;13.48;;;6.22;;
17812;SDS011;9030;50.792;8.320;2023-10-08T03:39:09;12.70;;;6.78;;
17812;SDS011;9030;50.792;8.320;2023-10-08T03:41:38;12.43;;;6.55;;
17812;SDS011;9030;50.792;8.320;2023-10-08T03:44:06;12.38;;;6.32;;
17812;SDS011;9030;50.792;8.320;2023-10-08T03:46:38;16.77;;;6.45;;
17812;SDS011;9030;50.792;8.320;2023-10-08T03:49:07;17.23;;;7.45;;
17812;SDS011;9030;50.792;8.320;2023-10-08T03:51:41;15.82;;;7.70;;
17812;SDS011;9030;50.792;8.320;2023-10-08T03:54:08;13.88;;;6.88;;
17812;SDS011;9030;50.792;8.320;2023-10-08T03:56:42;15.68;;;8.23;;
17812;SDS011;9030;50.792;8.320;2023-10-08T03:59:13;15.98;;;6.70;;
17812;SDS011;9030;50.792;8.320;2023-10-08T04:01:45;14.48;;;6.80;;
17812;SDS011;9030;50.792;8.320;2023-10-08T04:04:14;16.42;;;6.85;;
17812;SDS011;9030;50.792;8.320;2023-10-08T04:06:42;14.35;;;7.07;;
17812;SDS011;9030;50.792;8.320;2023-10-08T04:09:14;14.02;;;7.00;;
17812;SDS011;9030;50.792;8.320;2023-10-08T04:11:49;12.48;;;6.32;;
17812;SDS011;9030;50.792;8.320;2023-10-08T04:14:21;16.83;;;7.05;;
17812;SDS011;9030;50.792;8.320;2023-10-08T04:16:48;18.30;;;7.32;;
17812;SDS011;9030;50.792;8.320;2023-10-08T04:19:17;15.60;;;7.70;;
17812;SDS011;9030;50.792;8.320;2023-10-08T04:21:47;16.20;;;8.35;;
17812;SDS011;9030;50.792;8.320;2023-10-08T04:24:19;15.05;;;9.35;;
17812;SDS011;9030;50.792;8.320;2023-10-08T04:26:54;18.13;;;9.60;;
17812;SDS011;9030;50.792;8.320;2023-10-08T04:29:27;15.85;;;8.25;;
17812;SDS011;9030;50.792;8.320;2023-10-08T04:31:57;45.92;;;22.58;;
17812;SDS011;9030;50.792;8.320;2023-10-08T04:34:32;73.85;;;42.65;;
17812;SDS011;9030;50.792;8.320;2023-10-08T04:37:01;28.70;;;18.25;;
17812;SDS011;9030;50.792;8.320;2023-10-08T04:39:29;20.58;;;12.05;;
17812;SDS011;9030;50.792;8.320;2023-10-08T04:41:59;16.50;;;7.68;;
17812;SDS011;9030;50.792;8.320;2023-10-08T04:44:31;17.45;;;9.23;;
17812;SDS011;9030;50.792;8.320;2023-10-08T04:46:58;16.67;;;8.65;;
17812;SDS011;9030;50.792;8.320;2023-10-08T04:49:30;15.05;;;7.55;;
17812;SDS011;9030;50.792;8.320;2023-10-08T04:52:00;15.95;;;8.00;;
17812;SDS011;9030;50.792;8.320;2023-10-08T04:54:34;17.65;;;9.43;;
17812;SDS011;9030;50.792;8.320;2023-10-08T04:57:05;14.80;;;8.48;;
17812;SDS011;9030;50.792;8.320;2023-10-08T04:59:37;14.55;;;8.50;;
17812;SDS011;9030;50.792;8.320;2023-10-08T05:02:04;14.35;;;8.13;;
17812;SDS011;9030;50.792;8.320;2023-10-08T05:04:58;15.60;;;8.13;;
17812;SDS011;9030;50.792;8.320;2023-10-08T05:07:48;17.05;;;8.90;;
17812;SDS011;9030;50.792;8.320;2023-10-08T05:10:26;17.52;;;9.93;;
17812;SDS011;9030;50.792;8.320;2023-10-08T05:13:09;18.70;;;8.35;;
17812;SDS011;9030;50.792;8.320;2023-10-08T05:15:42;16.27;;;9.18;;
17812;SDS011;9030;50.792;8.320;2023-10-08T05:18:27;19.67;;;9.90;;
17812;SDS011;9030;50.792;8.320;2023-10-08T05:21:13;18.60;;;9.00;;
17812;SDS011;9030;50.792;8.320;2023-10-08T05:23:52;19.15;;;8.50;;
17812;SDS011;9030;50.792;8.320;2023-10-08T05:26:40;21.40;;;9.02;;
17812;SDS011;9030;50.792;8.320;2023-10-08T05:29:14;15.77;;;8.40;;
17812;SDS011;9030;50.792;8.320;2023-10-08T05:32:17;16.02;;;8.45;;
17812;SDS011;9030;50.792;8.320;2023-10-08T05:35:03;18.30;;;8.02;;
17812;SDS011;9030;50.792;8.320;2023-10-08T05:37:44;17.48;;;8.60;;
17812;SDS011;9030;50.792;8.320;2023-10-08T05:40:18;17.02;;;7.57;;
17812;SDS011;9030;50.792;8.320;2023-10-08T05:43:06;15.52;;;8.82;;
17812;SDS011;9030;50.792;8.320;2023-10-08T05:45:48;16.30;;;9.35;;
17812;SDS011;9030;50.792;8.320;2023-10-08T05:48:37;17.70;;;8.40;;
17812;SDS011;9030;50.792;8.320;2023-10-08T05:51:10;18.55;;;9.77;;
17812;SDS011;9030;50.792;8.320;2023-10-08T05:53:48;41.70;;;32.15;;
17812;SDS011;9030;50.792;8.320;2023-10-08T05:56:22;22.77;;;13.18;;
17812;SDS011;9030;50.792;8.320;2023-10-08T05:59:07;27.23;;;19.77;;
17812;SDS011;9030;50.792;8.320;2023-10-08T06:01:42;29.00;;;20.17;;
17812;SDS011;9030;50.792;8.320;2023-10-08T06:04:11;20.73;;;14.73;;
17812;SDS011;9030;50.792;8.320;2023-10-08T06:06:56;22.60;;;15.30;;
17812;SDS011;9030;50.792;8.320;2023-10-08T06:09:37;21.20;;;14.80;;
17812;SDS011;9030;50.792;8.320;2023-10-08T06:12:06;20.15;;;12.63;;
17812;SDS011;9030;50.792;8.320;2023-10-08T06:14:36;15.32;;;9.10;;
17812;SDS011;9030;50.792;8.320;2023-10-08T06:17:17;18.15;;;9.48;;
17812;SDS011;9030;50.792;8.320;2023-10-08T06:19:59;19.90;;;9.18;;
17812;SDS011;9030;50.792;8.320;2023-10-08T06:22:26;16.50;;;9.10;;
17812;SDS011;9030;50.792;8.320;2023-10-08T06:24:53;16.08;;;8.73;;
17812;SDS011;9030;50.792;8.320;2023-10-08T06:27:41;17.48;;;8.77;;
17812;SDS011;9030;50.792;8.320;2023-10-08T06:30:09;19.58;;;8.40;;
17812;SDS011;9030;50.792;8.320;2023-10-08T06:32:41;17.00;;;8.10;;
17812;SDS011;9030;50.792;8.320;2023-10-08T06:35:09;20.63;;;8.90;;
17812;SDS011;9030;50.792;8.320;2023-10-08T06:37:42;19.02;;;9.40;;
17812;SDS011;9030;50.792;8.320;2023-10-08T06:40:10;15.95;;;7.68;;
17812;SDS011;9030;50.792;8.320;2023-10-08T06:42:59;18.15;;;8.77;;
17812;SDS011;9030;50.792;8.320;2023-10-08T06:45:36;17.67;;;9.00;;
17812;SDS011;9030;50.792;8.320;2023-10-08T06:48:04;16.50;;;10.63;;
17812;SDS011;9030;50.792;8.320;2023-10-08T06:50:31;18.08;;;10.02;;
17812;SDS011;9030;50.792;8.320;2023-10-08T06:53:00;19.05;;;11.02;;
17812;SDS011;9030;50.792;8.320;2023-10-08T06:55:31;19.02;;;10.20;;
17812;SDS011;9030;50.792;8.320;2023-10-08T06:58:00;23.40;;;11.73;;
17812;SDS011;9030;50.792;8.320;2023-10-08T07:00:30;21.15;;;11.90;;
17812;SDS011;9030;50.792;8.320;2023-10-08T07:03:04;19.30;;;13.20;;
17812;SDS011;9030;50.792;8.320;2023-10-08T07:05:33;20.00;;;11.65;;
17812;SDS011;9030;50.792;8.320;2023-10-08T07:08:05;24.08;;;12.48;;
17812;SDS011;9030;50.792;8.320;2023-10-08T07:10:33;17.92;;;11.23;;
17812;SDS011;9030;50.792;8.320;2023-10-08T07:13:01;20.33;;;12.43;;
17812;SDS011;9030;50.792;8.320;2023-10-08T07:15:29;18.45;;;12.95;;
17812;SDS011;9030;50.792;8.320;2023-10-08T07:17:57;21.95;;;13.27;;
17812;SDS011;9030;50.792;8.320;2023-10-08T07:20:33;21.45;;;12.27;;
17812;SDS011;9030;50.792;8.320;2023-10-08T07:23:03;21.77;;;12.70;;
17812;SDS011;9030;50.792;8.320;2023-10-08T07:25:34;19.92;;;13.65;;
17812;SDS011;9030;50.792;8.320;2023-10-08T07:28:04;21.05;;;12.93;;
17812;SDS011;9030;50.792;8.320;2023-10-08T07:30:36;21.85;;;16.05;;
17812;SDS011;9030;50.792;8.320;2023-10-08T07:33:05;22.52;;;14.70;;
17812;SDS011;9030;50.792;8.320;2023-10-08T07:35:31;22.60;;;14.43;;
17812;SDS011;9030;50.792;8.320;2023-10-08T07:38:03;25.30;;;15.98;;
17812;SDS011;9030;50.792;8.320;2023-10-08T07:40:34;22.98;;;16.55;;
17812;SDS011;9030;50.792;8.320;2023-10-08T07:43:02;22.00;;;13.48;;
17812;SDS011;9030;50.792;8.320;2023-10-08T07:45:34;23.73;;;15.13;;
17812;SDS011;9030;50.792;8.320;2023-10-08T07:48:01;27.05;;;15.10;;
17812;SDS011;9030;50.792;8.320;2023-10-08T07:50:34;24.85;;;13.32;;
17812;SDS011;9030;50.792;8.320;2023-10-08T07:53:02;16.75;;;11.48;;
17812;SDS011;9030;50.792;8.320;2023-10-08T07:55:29;26.50;;;14.93;;
17812;SDS011;9030;50.792;8.320;2023-10-08T07:57:57;19.73;;;14.35;;
17812;SDS011;9030;50.792;8.320;2023-10-08T08:00:24;20.08;;;14.18;;
17812;SDS011;9030;50.792;8.320;2023-10-08T08:02:57;23.77;;;13.30;;
17812;SDS011;9030;50.792;8.320;2023-10-08T08:05:23;22.80;;;14.18;;
17812;SDS011;9030;50.792;8.320;2023-10-08T08:07:50;27.83;;;16.42;;
17812;SDS011;9030;50.792;8.320;2023-10-08T08:10:17;24.73;;;14.40;;
17812;SDS011;9030;50.792;8.320;2023-10-08T08:12:44;26.65;;;14.02;;
17812;SDS011;9030;50.792;8.320;2023-10-08T08:15:11;24.35;;;15.63;;
17812;SDS011;9030;50.792;8.320;2023-10-08T08:17:40;24.27;;;15.02;;
17812;SDS011;9030;50.792;8.320;2023-10-08T08:20:09;29.33;;;15.60;;
17812;SDS011;9030;50.792;8.320;2023-10-08T08:22:43;30.85;;;17.13;;
17812;SDS011;9030;50.792;8.320;2023-10-08T08:25:15;26.08;;;14.98;;
17812;SDS011;9030;50.792;8.320;2023-10-08T08:27:51;26.38;;;15.15;;
17812;SDS011;9030;50.792;8.320;2023-10-08T08:30:18;25.55;;;15.50;;
17812;SDS011;9030;50.792;8.320;2023-10-08T08:32:45;24.17;;;15.07;;
17812;SDS011;9030;50.792;8.320;2023-10-08T08:35:14;23.95;;;12.85;;
17812;SDS011;9030;50.792;8.320;2023-10-08T08:37:42;23.55;;;13.15;;
17812;SDS011;9030;50.792;8.320;2023-10-08T08:40:11;24.33;;;13.85;;
17812;SDS011;9030;50.792;8.320;2023-10-08T08:42:42;21.25;;;14.18;;
17812;SDS011;9030;50.792;8.320;2023-10-08T08:45:10;23.70;;;14.77;;
17812;SDS011;9030;50.792;8.320;2023-10-08T08:47:43;22.90;;;12.55;;
17812;SDS011;9030;50.792;8.320;2023-10-08T08:50:10;23.98;;;14.00;;
17812;SDS011;9030;50.792;8.320;2023-10-08T08:52:38;23.95;;;14.02;;
17812;SDS011;9030;50.792;8.320;2023-10-08T08:55:06;23.38;;;14.50;;
17812;SDS011;9030;50.792;8.320;2023-10-08T08:57:39;27.80;;;16.33;;
17812;SDS011;9030;50.792;8.320;2023-10-08T09:00:09;22.98;;;13.40;;
17812;SDS011;9030;50.792;8.320;2023-10-08T09:02:38;21.17;;;13.70;;
17812;SDS011;9030;50.792;8.320;2023-10-08T09:05:06;24.10;;;12.43;;
17812;SDS011;9030;50.792;8.320;2023-10-08T09:07:54;18.10;;;12.52;;
17812;SDS011;9030;50.792;8.320;2023-10-08T09:10:22;23.00;;;12.75;;
17812;SDS011;9030;50.792;8.320;2023-10-08T09:12:52;21.55;;;14.18;;
17812;SDS011;9030;50.792;8.320;2023-10-08T09:15:22;24.75;;;12.55;;
17812;SDS011;9030;50.792;8.320;2023-10-08T09:17:51;18.45;;;11.15;;
17812;SDS011;9030;50.792;8.320;2023-10-08T09:20:18;20.70;;;11.27;;
17812;SDS011;9030;50.792;8.320;2023-10-08T09:22:45;22.33;;;11.55;;
17812;SDS011;9030;50.792;8.320;2023-10-08T09:25:16;18.05;;;10.45;;
17812;SDS011;9030;50.792;8.320;2023-10-08T09:27:50;19.52;;;12.27;;
17812;SDS011;9030;50.792;8.320;2023-10-08T09:30:20;25.30;;;13.77;;
17812;SDS011;9030;50.792;8.320;2023-10-08T09:32:47;20.80;;;13.35;;
17812;SDS011;9030;50.792;8.320;2023-10-08T09:35:14;22.75;;;13.93;;
17812;SDS011;9030;50.792;8.320;2023-10-08T09:37:41;25.05;;;13.02;;
17812;SDS011;9030;50.792;8.320;2023-10-08T09:40:10;22.33;;;12.35;;
17812;SDS011;9030;50.792;8.320;2023-10-08T09:42:39;21.58;;;12.38;;
17812;SDS011;9030;50.792;8.320;2023-10-08T09:45:08;27.20;;;12.80;;
17812;SDS011;9030;50.792;8.320;2023-10-08T09:47:38;25.23;;;13.82;;
17812;SDS011;9030;50.792;8.320;2023-10-08T09:50:09;20.88;;;12.90;;
17812;SDS011;9030;50.792;8.320;2023-10-08T09:52:39;22.67;;;13.25;;
17812;SDS011;9030;50.792;8.320;2023-10-08T09:55:17;24.38;;;13.95;;
17812;SDS011;9030;50.792;8.320;2023-10-08T09:57:46;22.83;;;13.02;;
17812;SDS011;9030;50.792;8.320;2023-10-08T10:00:16;24.20;;;13.60;;
17812;SDS011;9030;50.792;8.320;2023-10-08T10:02:44;27.63;;;14.45;;
17812;SDS011;9030;50.792;8.320;2023-10-08T10:05:11;24.13;;;14.90;;
17812;SDS011;9030;50.792;8.320;2023-10-08T10:07:37;25.33;;;14.18;;
17812;SDS011;9030;50.792;8.320;2023-10-08T10:12:58;23.55;;;14.77;;
17812;SDS011;9030;50.792;8.320;2023-10-08T10:15:25;27.30;;;14.77;;
17812;SDS011;9030;50.792;8.320;2023-10-08T10:17:58;27.25;;;15.32;;
17812;SDS011;9030;50.792;8.320;2023-10-08T10:20:25;27.80;;;15.00;;
17812;SDS011;9030;50.792;8.320;2023-10-08T10:22:52;26.85;;;15.27;;
17812;SDS011;9030;50.792;8.320;2023-10-08T10:25:33;20.05;;;13.27;;
17812;SDS011;9030;50.792;8.320;2023-10-08T10:30:49;30.88;;;16.52;;
17812;SDS011;9030;50.792;8.320;2023-10-08T10:33:17;21.00;;;14.55;;
17812;SDS011;9030;50.792;8.320;2023-10-08T10:35:48;31.10;;;18.45;;
17812;SDS011;9030;50.792;8.320;2023-10-08T10:38:18;32.60;;;16.88;;
17812;SDS011;9030;50.792;8.320;2023-10-08T10:40:47;25.38;;;16.13;;
17812;SDS011;9030;50.792;8.320;2023-10-08T10:43:24;27.25;;;16.80;;
17812;SDS011;9030;50.792;8.320;2023-10-08T10:45:58;29.00;;;15.90;;
17812;SDS011;9030;50.792;8.320;2023-10-08T10:48:30;22.92;;;15.32;;
17812;SDS011;9030;50.792;8.320;2023-10-08T10:50:59;24.95;;;18.90;;
17812;SDS011;9030;50.792;8.320;2023-10-08T10:53:35;26.70;;;17.98;;
17812;SDS011;9030;50.792;8.320;2023-10-08T10:56:11;28.45;;;17.95;;
17812;SDS011;9030;50.792;8.320;2023-10-08T10:58:44;30.13;;;17.85;;
17812;SDS011;9030;50.792;8.320;2023-10-08T11:01:18;23.98;;;17.85;;
17812;SDS011;9030;50.792;8.320;2023-10-08T11:03:49;26.23;;;17.02;;
17812;SDS011;9030;50.792;8.320;2023-10-08T11:06:17;26.55;;;15.70;;
17812;SDS011;9030;50.792;8.320;2023-10-08T11:08:48;23.13;;;16.35;;
17812;SDS011;9030;50.792;8.320;2023-10-08T11:11:16;30.15;;;17.13;;
17812;SDS011;9030;50.792;8.320;2023-10-08T11:13:45;26.45;;;19.63;;
17812;SDS011;9030;50.792;8.320;2023-10-08T11:16:17;24.55;;;16.30;;
17812;SDS011;9030;50.792;8.320;2023-10-08T11:18:46;26.30;;;16.00;;
17812;SDS011;9030;50.792;8.320;2023-10-08T11:21:15;24.70;;;16.35;;
17812;SDS011;9030;50.792;8.320;2023-10-08T11:23:49;26.35;;;17.55;;
17812;SDS011;9030;50.792;8.320;2023-10-08T11:26:21;30.50;;;17.23;;
17812;SDS011;9030;50.792;8.320;2023-10-08T11:28:58;23.48;;;15.15;;
17812;SDS011;9030;50.792;8.320;2023-10-08T11:31:28;28.60;;;16.98;;
17812;SDS011;9030;50.792;8.320;2023-10-08T11:33:59;23.45;;;16.23;;
17812;SDS011;9030;50.792;8.320;2023-10-08T11:36:27;28.83;;;16.63;;
17812;SDS011;9030;50.792;8.320;2023-10-08T11:38:55;22.40;;;15.52;;
17812;SDS011;9030;50.792;8.320;2023-10-08T11:41:27;26.17;;;17.70;;
17812;SDS011;9030;50.792;8.320;2023-10-08T11:43:55;25.63;;;16.70;;
17812;SDS011;9030;50.792;8.320;2023-10-08T11:46:25;30.52;;;17.42;;
17812;SDS011;9030;50.792;8.320;2023-10-08T11:48:58;31.42;;;18.05;;
17812;SDS011;9030;50.792;8.320;2023-10-08T11:51:29;22.90;;;15.32;;
17812;SDS011;9030;50.792;8.320;2023-10-08T11:53:57;27.17;;;17.13;;
17812;SDS011;9030;50.792;8.320;2023-10-08T11:56:25;26.65;;;18.52;;
17812;SDS011;9030;50.792;8.320;2023-10-08T11:58:52;26.20;;;16.70;;
17812;SDS011;9030;50.792;8.320;2023-10-08T12:01:21;22.45;;;17.55;;
17812;SDS011;9030;50.792;8.320;2023-10-08T12:03:50;25.67;;;16.88;;
17812;SDS011;9030;50.792;8.320;2023-10-08T12:06:17;26.75;;;18.25;;
17812;SDS011;9030;50.792;8.320;2023-10-08T12:08:44;24.63;;;16.30;;
17812;SDS011;9030;50.792;8.320;2023-10-08T12:11:14;17.63;;;9.50;;
17812;SDS011;9030;50.792;8.320;2023-10-08T12:13:42;12.57;;;6.28;;
17812;SDS011;9030;50.792;8.320;2023-10-08T12:16:11;15.32;;;5.72;;
17812;SDS011;9030;50.792;8.320;2023-10-08T12:18:43;15.02;;;4.68;;
17812;SDS011;9030;50.792;8.320;2023-10-08T12:21:14;9.88;;;4.85;;
17812;SDS011;9030;50.792;8.320;2023-10-08T12:23:42;9.45;;;3.67;;
17812;SDS011;9030;50.792;8.320;2023-10-08T12:26:11;9.57;;;4.40;;
17812;SDS011;9030;50.792;8.320;2023-10-08T12:28:40;10.25;;;3.50;;
17812;SDS011;9030;50.792;8.320;2023-10-08T12:31:09;14.70;;;4.55;;
17812;SDS011;9030;50.792;8.320;2023-10-08T12:33:35;12.10;;;4.72;;
17812;SDS011;9030;50.792;8.320;2023-10-08T12:36:02;10.02;;;3.92;;
17812;SDS011;9030;50.792;8.320;2023-10-08T12:38:37;13.35;;;4.05;;
17812;SDS011;9030;50.792;8.320;2023-10-08T12:41:04;8.02;;;3.28;;
17812;SDS011;9030;50.792;8.320;2023-10-08T12:43:37;10.07;;;2.53;;
17812;SDS011;9030;50.792;8.320;2023-10-08T12:46:04;12.63;;;3.10;;
17812;SDS011;9030;50.792;8.320;2023-10-08T12:48:36;7.78;;;3.55;;
17812;SDS011;9030;50.792;8.320;2023-10-08T12:51:03;9.57;;;3.38;;
17812;SDS011;9030;50.792;8.320;2023-10-08T12:53:31;13.55;;;3.83;;
17812;SDS011;9030;50.792;8.320;2023-10-08T12:56:01;8.48;;;3.42;;
17812;SDS011;9030;50.792;8.320;2023-10-08T12:58:31;7.97;;;2.50;;
17812;SDS011;9030;50.792;8.320;2023-10-08T13:01:03;11.15;;;2.40;;
17812;SDS011;9030;50.792;8.320;2023-10-08T13:03:32;6.80;;;2.95;;
17812;SDS011;9030;50.792;8.320;2023-10-08T13:06:06;6.60;;;2.30;;
17812;SDS011;9030;50.792;8.320;2023-10-08T13:08:36;5.45;;;2.20;;
17812;SDS011;9030;50.792;8.320;2023-10-08T13:11:04;7.05;;;2.53;;
17812;SDS011;9030;50.792;8.320;2023-10-08T13:13:31;11.95;;;4.68;;
17812;SDS011;9030;50.792;8.320;2023-10-08T13:15:58;13.52;;;3.38;;
17812;SDS011;9030;50.792;8.320;2023-10-08T13:18:29;9.23;;;2.95;;
17812;SDS011;9030;50.792;8.320;2023-10-08T13:20:57;11.02;;;2.35;;
17812;SDS011;9030;50.792;8.320;2023-10-08T13:23:25;9.52;;;2.58;;
17812;SDS011;9030;50.792;8.320;2023-10-08T13:25:53;9.50;;;3.28;;
17812;SDS011;9030;50.792;8.320;2023-10-08T13:28:22;11.77;;;3.28;;
17812;SDS011;9030;50.792;8.320;2023-10-08T13:30:51;11.65;;;3.22;;
17812;SDS011;9030;50.792;8.320;2023-10-08T13:33:19;6.38;;;3.00;;
17812;SDS011;9030;50.792;8.320;2023-10-08T13:35:47;11.05;;;3.30;;
17812;SDS011;9030;50.792;8.320;2023-10-08T13:38:15;12.40;;;3.70;;
17812;SDS011;9030;50.792;8.320;2023-10-08T13:40:44;7.53;;;3.63;;
17812;SDS011;9030;50.792;8.320;2023-10-08T13:43:28;15.00;;;4.10;;
17812;SDS011;9030;50.792;8.320;2023-10-08T13:46:00;13.75;;;3.75;;
17812;SDS011;9030;50.792;8.320;2023-10-08T13:48:29;8.48;;;4.18;;
17812;SDS011;9030;50.792;8.320;2023-10-08T13:50:57;14.35;;;5.10;;
17812;SDS011;9030;50.792;8.320;2023-10-08T13:53:25;10.10;;;4.32;;
17812;SDS011;9030;50.792;8.320;2023-10-08T13:55:54;14.52;;;4.43;;
17812;SDS011;9030;50.792;8.320;2023-10-08T13:58:22;12.02;;;4.22;;
17812;SDS011;9030;50.792;8.320;2023-10-08T14:00:50;11.73;;;3.97;;
17812;SDS011;9030;50.792;8.320;2023-10-08T14:03:18;13.50;;;5.20;;
17812;SDS011;9030;50.792;8.320;2023-10-08T14:05:46;14.93;;;4.40;;
17812;SDS011;9030;50.792;8.320;2023-10-08T14:08:15;14.88;;;4.28;;
17812;SDS011;9030;50.792;8.320;2023-10-08T14:10:42;11.82;;;4.90;;
17812;SDS011;9030;50.792;8.320;2023-10-08T14:13:09;11.10;;;4.15;;
17812;SDS011;9030;50.792;8.320;2023-10-08T14:15:36;13.32;;;5.10;;
17812;SDS011;9030;50.792;8.320;2023-10-08T14:18:10;14.18;;;4.65;;
17812;SDS011;9030;50.792;8.320;2023-10-08T14:20:41;11.52;;;3.97;;
17812;SDS011;9030;50.792;8.320;2023-10-08T14:23:11;11.05;;;4.32;;
17812;SDS011;9030;50.792;8.320;2023-10-08T14:25:41;11.50;;;4.18;;
17812;SDS011;9030;50.792;8.320;2023-10-08T14:28:10;11.10;;;4.38;;
17812;SDS011;9030;50.792;8.320;2023-10-08T14:30:46;11.52;;;3.83;;
17812;SDS011;9030;50.792;8.320;2023-10-08T14:33:19;15.68;;;5.20;;
17812;SDS011;9030;50.792;8.320;2023-10-08T14:35:51;10.90;;;4.15;;
17812;SDS011;9030;50.792;8.320;2023-10-08T14:38:36;11.43;;;4.03;;
17812;SDS011;9030;50.792;8.320;2023-10-08T14:41:20;10.85;;;4.43;;
17812;SDS011;9030;50.792;8.320;2023-10-08T14:44:04;11.48;;;4.25;;
17812;SDS011;9030;50.792;8.320;2023-10-08T14:46:31;9.15;;;3.78;;
17812;SDS011;9030;50.792;8.320;2023-10-08T14:49:03;13.18;;;4.05;;
17812;SDS011;9030;50.792;8.320;2023-10-08T14:51:34;10.05;;;3.92;;
17812;SDS011;9030;50.792;8.320;2023-10-08T14:54:03;11.63;;;3.53;;
17812;SDS011;9030;50.792;8.320;2023-10-08T14:56:32;11.80;;;3.63;;
17812;SDS011;9030;50.792;8.320;2023-10-08T14:58:59;10.13;;;4.70;;
17812;SDS011;9030;50.792;8.320;2023-10-08T15:01:26;9.10;;;3.25;;
17812;SDS011;9030;50.792;8.320;2023-10-08T15:03:53;8.52;;;2.70;;
17812;SDS011;9030;50.792;8.320;2023-10-08T15:06:21;9.20;;;2.97;;
17812;SDS011;9030;50.792;8.320;2023-10-08T15:08:48;12.45;;;3.22;;
17812;SDS011;9030;50.792;8.320;2023-10-08T15:11:15;8.95;;;2.47;;